createdAt,value
2023-03-08T05:26:28.550Z,0.64
2023-03-08T05:29:05.741Z,0.67
2023-03-08T05:31:39.401Z,0.68
2023-03-08T05:34:09.882Z,0.73
2023-03-08T05:36:37.664Z,0.78
2023-03-08T05:39:09.758Z,0.80
2023-03-08T05:42:03.791Z,0.81
2023-03-08T05:44:39.432Z,0.84
2023-03-08T05:47:07.544Z,0.84
2023-03-08T05:49:41.446Z,0.86
2023-03-08T05:52:13.762Z,0.84
2023-03-08T05:54:41.135Z,0.85
2023-03-08T05:57:22.051Z,0.83
2023-03-08T05:59:51.721Z,0.81
2023-03-08T06:02:23.383Z,0.76
2023-03-08T06:04:56.020Z,0.72
2023-03-08T06:07:24.325Z,0.65
2023-03-08T06:10:06.060Z,0.65
2023-03-08T06:12:40.930Z,0.63
2023-03-08T06:15:12.581Z,0.65
2023-03-08T06:17:40.247Z,0.64
2023-03-08T06:20:10.256Z,0.61
2023-03-08T06:22:38.948Z,0.62
2023-03-08T06:25:09.303Z,0.62
2023-03-08T06:27:36.293Z,0.61
2023-03-08T06:30:06.798Z,0.64
2023-03-08T06:32:36.945Z,0.67
2023-03-08T06:35:06.607Z,0.73
2023-03-08T06:37:35.551Z,0.75
2023-03-08T06:40:05.117Z,0.79
2023-03-08T06:42:41.470Z,0.80
2023-03-08T06:45:12.639Z,0.85
2023-03-08T07:09:34.515Z,0.92
2023-03-08T07:13:42.070Z,0.97
2023-03-08T07:16:57.865Z,1.00
2023-03-08T07:19:25.103Z,1.05
2023-03-08T07:21:52.664Z,1.11
2023-03-08T07:24:19.771Z,1.12
2023-03-08T07:26:47.777Z,1.16
2023-03-08T07:29:14.709Z,1.15
2023-03-08T07:31:43.330Z,1.12
2023-03-08T07:34:09.941Z,1.10
2023-03-08T07:36:39.356Z,1.11
2023-03-08T07:39:06.507Z,1.12
2023-03-08T07:41:34.167Z,1.15
2023-03-08T07:44:03.293Z,1.19
2023-03-08T07:46:30.268Z,1.17
2023-03-08T07:48:57.157Z,1.21
2023-03-08T07:51:24.362Z,1.25
2023-03-08T07:53:52.846Z,1.30
2023-03-08T07:56:20.112Z,1.40
2023-03-08T07:58:49.424Z,1.39
2023-03-08T08:01:16.005Z,1.49
2023-03-08T08:03:43.893Z,1.53
2023-03-08T08:06:10.950Z,1.51
2023-03-08T08:08:37.986Z,1.57
2023-03-08T08:11:13.424Z,1.57
2023-03-08T08:13:40.593Z,1.56
2023-03-08T08:16:07.741Z,1.59
2023-03-08T08:19:50.668Z,1.57
2023-03-08T08:46:25.006Z,2.75
2023-03-08T08:48:52.178Z,2.83
2023-03-08T08:51:22.593Z,2.97
2023-03-08T08:53:55.189Z,3.22
2023-03-08T08:56:27.683Z,3.35
2023-03-08T09:05:45.460Z,3.67
2023-03-08T09:08:12.584Z,3.64
2023-03-08T09:10:41.404Z,3.65
2023-03-08T09:13:11.349Z,3.60
2023-03-08T10:11:49.233Z,3.95
2023-03-08T10:14:21.456Z,3.77
2023-03-08T10:16:56.655Z,3.72
2023-03-08T10:19:47.603Z,3.89
2023-03-08T10:22:22.367Z,4.10
2023-03-08T10:24:56.106Z,4.11
2023-03-08T10:27:26.145Z,4.31
2023-03-08T10:30:01.516Z,4.34
2023-03-08T10:32:29.005Z,4.29
2023-03-08T10:35:05.890Z,4.33
2023-03-08T10:37:33.699Z,4.42
2023-03-08T10:40:05.610Z,4.40
2023-03-08T10:42:34.986Z,4.59
2023-03-08T10:45:12.460Z,4.64
2023-03-08T10:47:39.247Z,4.66
2023-03-08T10:50:50.339Z,4.55
2023-03-08T10:53:26.997Z,4.38
2023-03-08T10:56:00.619Z,4.26
2023-03-08T10:58:39.141Z,4.09
2023-03-08T11:01:31.562Z,3.96
2023-03-08T11:04:14.422Z,3.83
2023-03-08T11:06:41.328Z,3.79
2023-03-08T11:09:38.715Z,3.72
2023-03-08T11:12:20.448Z,3.62
2023-03-08T11:14:50.354Z,3.62
2023-03-08T11:17:34.943Z,3.65
2023-03-08T11:20:11.083Z,3.63
2023-03-08T11:22:40.469Z,3.63
2023-03-08T11:25:25.550Z,3.67
2023-03-08T11:28:44.748Z,3.71
2023-03-08T11:31:35.465Z,3.67
2023-03-08T11:34:39.383Z,3.77
2023-03-08T11:37:27.653Z,3.90
2023-03-08T11:40:22.347Z,3.98
2023-03-08T12:13:46.348Z,3.78
2023-03-08T12:16:41.777Z,3.75
2023-03-08T12:19:23.648Z,3.76
2023-03-08T12:22:22.084Z,3.72
2023-03-08T12:25:07.252Z,3.71
2023-03-08T12:27:47.693Z,3.70
2023-03-08T12:30:33.221Z,3.70
2023-03-08T12:47:04.525Z,3.87
2023-03-08T12:49:55.915Z,3.94
2023-03-08T12:52:29.847Z,3.96
2023-03-08T12:55:10.488Z,4.00
2023-03-08T12:57:46.080Z,4.03
2023-03-08T13:00:33.910Z,4.06
2023-03-08T13:03:13.456Z,4.09
2023-03-08T13:06:34.020Z,4.09
2023-03-08T13:26:52.093Z,3.68
2023-03-08T13:29:34.119Z,3.59
2023-03-08T13:32:28.503Z,3.57
2023-03-08T13:35:17.061Z,3.58
2023-03-08T13:38:00.064Z,3.60
2023-03-08T13:40:34.271Z,3.60
2023-03-08T13:43:11.309Z,3.66
2023-03-08T13:45:41.624Z,3.71
2023-03-08T13:48:13.487Z,3.74
2023-03-08T13:50:53.296Z,3.75
2023-03-08T13:53:56.193Z,3.77
2023-03-08T13:56:28.643Z,3.79
2023-03-08T13:58:59.822Z,3.80
2023-03-08T14:01:28.483Z,3.80
2023-03-08T14:04:01.504Z,3.84
2023-03-08T14:06:38.644Z,3.82
2023-03-08T14:09:10.401Z,3.86
2023-03-08T14:11:44.773Z,3.90
2023-03-08T14:14:26.273Z,3.94
2023-03-08T14:16:55.566Z,3.96
2023-03-08T14:19:30.217Z,3.99
2023-03-08T14:22:38.756Z,3.96
2023-03-08T14:25:34.536Z,3.94
2023-03-08T14:28:02.455Z,3.95
2023-03-08T14:30:30.853Z,3.97
2023-03-08T14:33:16.773Z,3.99
2023-03-08T14:35:53.679Z,4.01
2023-03-08T14:38:27.179Z,4.03
2023-03-08T14:40:56.283Z,4.05
2023-03-08T14:43:26.450Z,4.03
2023-03-08T14:46:03.585Z,4.02
2023-03-08T14:48:38.562Z,4.02
2023-03-08T14:51:27.306Z,4.05
2023-03-08T14:54:05.724Z,4.03
2023-03-08T14:56:35.078Z,3.99
2023-03-08T14:59:09.098Z,3.98
2023-03-08T15:01:40.720Z,3.97
2023-03-08T15:04:29.448Z,3.94
2023-03-08T15:06:57.989Z,3.91
2023-03-08T15:09:26.793Z,3.88
2023-03-08T15:12:01.743Z,3.85
2023-03-08T15:14:32.670Z,3.83
2023-03-08T15:17:01.596Z,3.82
2023-03-08T15:19:29.555Z,3.77
2023-03-08T15:21:58.610Z,3.75
2023-03-08T15:24:29.081Z,3.73
2023-03-08T15:26:59.790Z,3.68
2023-03-08T15:29:37.059Z,3.65
2023-03-08T15:32:08.203Z,3.62
2023-03-08T15:34:40.938Z,3.62
2023-03-08T15:37:14.547Z,3.58
2023-03-08T15:39:45.243Z,3.55
2023-03-08T15:42:17.668Z,3.51
2023-03-08T15:44:45.564Z,3.45
2023-03-08T15:47:16.772Z,3.45
2023-03-08T15:49:44.831Z,3.45
2023-03-08T15:52:12.912Z,3.43
2023-03-08T15:54:51.942Z,3.42
2023-03-08T15:57:20.574Z,3.41
2023-03-08T15:59:51.961Z,3.40
2023-03-08T16:02:21.215Z,3.36
2023-03-08T16:04:59.415Z,3.34
2023-03-08T16:07:29.988Z,3.35
2023-03-08T16:09:58.295Z,3.35
2023-03-08T16:12:26.500Z,3.34
2023-03-08T16:14:59.429Z,3.34
2023-03-08T16:17:32.329Z,3.33
2023-03-08T16:20:00.562Z,3.29
2023-03-08T16:22:33.414Z,3.26
2023-03-08T16:25:01.996Z,3.22
2023-03-08T16:27:35.720Z,3.18
2023-03-08T16:30:05.522Z,3.14
2023-03-08T16:32:34.819Z,3.10
2023-03-08T16:35:03.124Z,3.08
2023-03-08T16:37:33.790Z,3.05
2023-03-08T16:40:07.457Z,3.01
2023-03-08T16:42:38.365Z,2.99
2023-03-08T16:45:07.378Z,2.98
2023-03-08T16:47:35.707Z,2.96
2023-03-08T16:50:04.185Z,2.95
2023-03-08T16:52:32.518Z,2.93
2023-03-08T16:55:03.663Z,2.93
2023-03-08T16:57:31.652Z,2.91
2023-03-08T17:00:00.109Z,2.90
2023-03-08T17:02:30.449Z,2.87
2023-03-08T17:04:58.803Z,2.86
2023-03-08T17:07:27.176Z,2.85
2023-03-08T17:09:55.389Z,2.83
2023-03-08T17:12:23.531Z,2.80
2023-03-08T17:14:52.364Z,2.78
2023-03-08T17:17:20.738Z,2.75
2023-03-08T17:19:55.021Z,2.74
2023-03-08T17:22:22.912Z,2.73
2023-03-08T17:24:51.089Z,2.71
2023-03-08T17:27:19.333Z,2.69
2023-03-08T17:29:47.645Z,2.69
2023-03-08T17:32:15.895Z,2.68
2023-03-08T17:34:44.556Z,2.67
2023-03-08T17:37:15.787Z,2.64
2023-03-08T17:39:43.904Z,2.64
2023-03-08T17:42:16.280Z,2.61
2023-03-08T17:44:48.984Z,2.61
2023-03-08T17:47:16.802Z,2.58
2023-03-08T17:49:47.237Z,2.54
2023-03-08T17:52:15.920Z,2.53
2023-03-08T17:54:44.480Z,2.51
2023-03-08T17:57:23.195Z,2.51
2023-03-08T17:59:55.180Z,2.49
2023-03-08T18:02:28.548Z,2.47
2023-03-08T18:05:01.260Z,2.47
2023-03-08T18:07:29.381Z,2.48
2023-03-08T18:10:01.846Z,2.47
2023-03-08T18:12:30.064Z,2.46
2023-03-08T18:15:01.388Z,2.43
2023-03-08T18:17:31.791Z,2.43
2023-03-08T18:20:05.625Z,2.44
2023-03-08T18:22:36.432Z,2.44
2023-03-08T18:25:05.540Z,2.46
2023-03-08T18:27:34.056Z,2.46
2023-03-08T18:30:04.724Z,2.44
2023-03-08T18:32:39.694Z,2.42
2023-03-08T18:35:15.592Z,2.41
2023-03-08T18:37:46.640Z,2.39
2023-03-08T18:40:15.123Z,2.37
2023-03-08T18:42:45.832Z,2.37
2023-03-08T18:45:18.213Z,2.37
2023-03-08T18:47:50.814Z,2.34
2023-03-08T18:50:23.678Z,2.34
2023-03-08T18:52:54.278Z,2.33
2023-03-08T18:55:22.826Z,2.33
2023-03-08T18:57:51.500Z,2.31
2023-03-08T19:00:19.817Z,2.30
2023-03-08T19:02:50.813Z,2.29
2023-03-08T19:05:23.451Z,2.29
2023-03-08T19:07:56.593Z,2.26
2023-03-08T19:10:27.258Z,2.22
2023-03-08T19:12:57.908Z,2.21
2023-03-08T19:15:26.202Z,2.18
2023-03-08T19:18:00.488Z,2.17
2023-03-08T19:20:32.205Z,2.17
2023-03-08T19:23:00.821Z,2.16
2023-03-08T19:25:33.737Z,2.18
2023-03-08T19:28:07.314Z,2.15
2023-03-08T19:30:35.693Z,2.14
2023-03-08T19:33:04.005Z,2.14
2023-03-08T19:35:36.984Z,2.15
2023-03-08T19:38:05.423Z,2.16
2023-03-08T19:40:34.697Z,2.19
2023-03-08T19:43:05.587Z,2.18
2023-03-08T19:45:36.373Z,2.13
2023-03-08T19:48:04.926Z,2.11
2023-03-08T19:50:35.713Z,2.10
2023-03-08T19:53:06.448Z,2.08
2023-03-08T19:55:34.836Z,2.07
2023-03-08T19:58:03.583Z,2.09
2023-03-08T20:00:35.399Z,2.12
2023-03-08T20:03:06.104Z,2.12
2023-03-08T20:05:39.882Z,2.10
2023-03-08T20:08:08.234Z,2.10
2023-03-08T20:10:36.138Z,2.10
2023-03-08T20:13:06.630Z,2.08
2023-03-08T20:15:37.244Z,2.09
2023-03-08T20:18:07.842Z,2.11
2023-03-08T20:20:40.463Z,2.12
2023-03-08T20:23:08.791Z,2.13
2023-03-08T20:25:37.053Z,2.12
2023-03-08T20:28:08.476Z,2.11
2023-03-08T20:30:37.945Z,2.09
2023-03-08T20:33:09.498Z,2.08
2023-03-08T20:35:38.467Z,2.08
2023-03-08T20:38:09.058Z,2.07
2023-03-08T20:40:39.545Z,2.04
2023-03-08T20:43:10.992Z,2.03
2023-03-08T20:45:40.352Z,2.02
2023-03-08T20:48:11.106Z,2.01
2023-03-08T20:50:44.026Z,2.02
2023-03-08T20:53:15.218Z,2.00
2023-03-08T20:55:43.139Z,1.99
2023-03-08T20:58:40.221Z,2.00
2023-03-08T21:01:22.856Z,2.01
2023-03-08T21:03:51.058Z,2.02
2023-03-08T21:06:21.795Z,2.02
2023-03-08T21:08:50.444Z,2.01
2023-03-08T21:11:19.326Z,1.99
2023-03-08T21:13:49.307Z,2.00
2023-03-08T21:16:19.801Z,1.98
2023-03-08T21:18:52.661Z,1.97
2023-03-08T21:21:38.018Z,1.97
2023-03-08T21:24:10.820Z,1.98
2023-03-08T21:26:39.065Z,1.96
2023-03-08T21:29:12.925Z,1.96
2023-03-08T21:31:50.244Z,1.93
2023-03-08T21:34:20.705Z,2.04
2023-03-08T21:36:51.439Z,2.07
2023-03-08T21:39:36.815Z,2.07
2023-03-08T21:42:16.567Z,2.05
2023-03-08T21:44:44.616Z,2.03
2023-03-08T21:47:15.125Z,2.00
2023-03-08T21:49:45.375Z,1.96
2023-03-08T21:52:15.978Z,1.94
2023-03-08T21:54:44.304Z,1.92
2023-03-08T21:57:15.110Z,1.87
2023-03-08T21:59:45.750Z,1.84
2023-03-08T22:02:13.883Z,1.82
2023-03-08T22:04:47.103Z,1.78
2023-03-08T22:07:17.281Z,1.79
2023-03-08T22:09:48.005Z,1.78
2023-03-08T22:12:16.400Z,1.77
2023-03-08T22:14:44.670Z,1.77
2023-03-08T22:17:13.472Z,1.77
2023-03-08T22:20:09.238Z,1.79
2023-03-08T22:43:41.495Z,1.65
2023-03-08T22:46:16.851Z,1.61
2023-03-08T22:48:46.447Z,1.61
2023-03-08T22:51:21.018Z,1.59
2023-03-08T22:53:49.727Z,1.59
2023-03-08T22:56:21.886Z,1.57
2023-03-08T22:58:50.332Z,1.58
2023-03-08T23:01:24.119Z,1.55
2023-03-08T23:03:57.278Z,1.55
2023-03-08T23:06:32.252Z,1.57
2023-03-08T23:09:06.439Z,1.55
2023-03-08T23:11:35.547Z,1.55
2023-03-08T23:14:04.430Z,1.54
2023-03-08T23:16:33.485Z,1.54
2023-03-08T23:19:02.268Z,1.56
2023-03-08T23:21:31.901Z,1.57
2023-03-08T23:49:16.990Z,1.54
2023-03-08T23:51:47.426Z,1.51
2023-03-08T23:54:17.773Z,1.50
2023-03-08T23:56:45.605Z,1.50
2023-03-08T23:59:21.685Z,1.52
